Ns Century — A8IJ8 — position and weather

sailwx.info

Track history (hours):
 
Tides and Currents Weather Stations Pressure Air Temp Water Temp Dewpoint Dewpoint Depression Visibility Wind Speed Wind Dir Waves Ship Positions

Ns Century

Last reported at 2018-Jun-23 18:42 UTC. Time now 2018-Jun-23 19:19 UTC.
Position N 29°21' W 094°45'.

Length 244 m; draft 8.6 m.

Type: Ship. MMSI: 636012853.

Date/timePositionNaut miles runAvg speedWind from/ knotsBaromVisibWave heightAir tempDewpointWater temp
2018-Jun-23 18:42N 29°21' W 094°45'0 0.0
2018-Jun-23 18:24N 29°21' W 094°45'0 0.1
2018-Jun-23 17:45N 29°21' W 094°44'0 0.0
2018-Jun-23 17:21N 29°21' W 094°44'0 0.0
2018-Jun-23 17:00N 29°21' W 094°44'0 0.0
2018-Jun-23 16:30N 29°21' W 094°44'0 0.0
2018-Jun-23 15:57N 29°21' W 094°44'0 0.0
2018-Jun-23 15:30N 29°21' W 094°44'0 0.1
2018-Jun-23 14:57N 29°21' W 094°44'0 0.1
2018-Jun-23 14:30N 29°21' W 094°44'0 0.0
2018-Jun-23 14:00N 29°21' W 094°44'0 0.1
2018-Jun-23 13:30N 29°21' W 094°45'0 0.2
2018-Jun-23 13:00N 29°21' W 094°45'0 0.1
2018-Jun-23 12:30N 29°21' W 094°45'0 0.1
2018-Jun-23 12:00N 29°21' W 094°45'0 0.1
2018-Jun-23 11:30N 29°21' W 094°45'0 0.1
2018-Jun-23 11:00N 29°21' W 094°45'0 0.0
2018-Jun-23 10:30N 29°21' W 094°45'0 0.0
2018-Jun-23 10:00N 29°21' W 094°45'0 0.0
2018-Jun-23 09:24N 29°21' W 094°45'0 0.0
2018-Jun-23 09:00N 29°21' W 094°45'0 0.0
2018-Jun-23 08:30N 29°21' W 094°45'0 0.1
2018-Jun-23 08:00N 29°21' W 094°45'0 0.1
2018-Jun-23 07:27N 29°21' W 094°45'0 0.1
2018-Jun-23 05:51N 29°21' W 094°45'0 0.1
2018-Jun-23 05:18N 29°21' W 094°44'0 0.0
2018-Jun-23 05:00N 29°21' W 094°44'0 0.1
2018-Jun-23 04:30N 29°21' W 094°44'0 0.0
2018-Jun-23 03:59N 29°21' W 094°44'0 0.0
2018-Jun-23 03:23N 29°21' W 094°44'0 0.0
2018-Jun-23 02:59N 29°21' W 094°44'0 0.0
2018-Jun-23 02:29N 29°21' W 094°44'0 0.1
2018-Jun-23 01:59N 29°21' W 094°44'0 0.0
2018-Jun-23 01:23N 29°21' W 094°44'0 0.0
2018-Jun-23 00:59N 29°21' W 094°44'0 0.0
2018-Jun-23 00:29N 29°21' W 094°44'0 0.0
2018-Jun-22 23:59N 29°21' W 094°44'0 0.0
2018-Jun-22 23:29N 29°21' W 094°44'0 0.0
2018-Jun-22 22:59N 29°21' W 094°44'0 0.0
2018-Jun-22 22:29N 29°21' W 094°44'0 0.0
2018-Jun-22 21:59N 29°21' W 094°44'0 0.1
2018-Jun-22 21:29N 29°21' W 094°44'0 0.1
2018-Jun-22 20:59N 29°21' W 094°44'0 0.0
2018-Jun-22 20:29N 29°21' W 094°44'0 0.1
2018-Jun-22 19:59N 29°21' W 094°44'0 0.0
2018-Jun-22 19:29N 29°21' W 094°44'0 0.0
2018-Jun-22 18:59N 29°21' W 094°44'0 0.1
2018-Jun-22 18:26N 29°21' W 094°44'0 0.0
2018-Jun-22 17:59N 29°21' W 094°44'0 0.0
2018-Jun-22 17:29N 29°21' W 094°44'0 0.3
2018-Jun-22 16:56N 29°21' W 094°44'1 3.3
2018-Jun-22 16:30N 29°21' W 094°43'611.4
2018-Jun-22 15:58N 29°18' W 094°36'511.0
2018-Jun-22 15:29N 29°15' W 094°32'5 9.5
2018-Jun-22 14:55N 29°12' W 094°26'4 7.7
2018-Jun-22 14:26N 29°10' W 094°23'5 6.6
2018-Jun-22 13:42N 29°07' W 094°18'411.9
2018-Jun-22 13:20N 29°04' W 094°14'412.4
2018-Jun-22 12:59N 29°02' W 094°10'712.4
2018-Jun-22 12:24N 28°58' W 094°04'  
Track history (hours):
 
Tides and Currents Weather Stations Pressure Air Temp Water Temp Dewpoint Dewpoint Depression Visibility Wind Speed Wind Dir Waves Ship Positions

Ns Century

Last reported at 2018-Jun-23 18:42 UTC. Time now 2018-Jun-23 19:19 UTC.
Position N 29°21' W 094°45'.

Length 244 m; draft 8.6 m.

Type: Ship. MMSI: 636012853.

Date/timePositionNaut miles runAvg speedWind from/ knotsBaromVisibWave heightAir tempDewpointWater temp
2018-Jun-23 18:42N 29°21' W 094°45'0 0.0
2018-Jun-23 18:24N 29°21' W 094°45'0 0.1
2018-Jun-23 17:45N 29°21' W 094°44'0 0.0
2018-Jun-23 17:21N 29°21' W 094°44'0 0.0
2018-Jun-23 17:00N 29°21' W 094°44'0 0.0
2018-Jun-23 16:30N 29°21' W 094°44'0 0.0
2018-Jun-23 15:57N 29°21' W 094°44'0 0.0
2018-Jun-23 15:30N 29°21' W 094°44'0 0.1
2018-Jun-23 14:57N 29°21' W 094°44'0 0.1
2018-Jun-23 14:30N 29°21' W 094°44'0 0.0
2018-Jun-23 14:00N 29°21' W 094°44'0 0.1
2018-Jun-23 13:30N 29°21' W 094°45'0 0.2
2018-Jun-23 13:00N 29°21' W 094°45'0 0.1
2018-Jun-23 12:30N 29°21' W 094°45'0 0.1
2018-Jun-23 12:00N 29°21' W 094°45'0 0.1
2018-Jun-23 11:30N 29°21' W 094°45'0 0.1
2018-Jun-23 11:00N 29°21' W 094°45'0 0.0
2018-Jun-23 10:30N 29°21' W 094°45'0 0.0
2018-Jun-23 10:00N 29°21' W 094°45'0 0.0
2018-Jun-23 09:24N 29°21' W 094°45'0 0.0
2018-Jun-23 09:00N 29°21' W 094°45'0 0.0
2018-Jun-23 08:30N 29°21' W 094°45'0 0.1
2018-Jun-23 08:00N 29°21' W 094°45'0 0.1
2018-Jun-23 07:27N 29°21' W 094°45'0 0.1
2018-Jun-23 05:51N 29°21' W 094°45'0 0.1
2018-Jun-23 05:18N 29°21' W 094°44'0 0.0
2018-Jun-23 05:00N 29°21' W 094°44'0 0.1
2018-Jun-23 04:30N 29°21' W 094°44'0 0.0
2018-Jun-23 03:59N 29°21' W 094°44'0 0.0
2018-Jun-23 03:23N 29°21' W 094°44'0 0.0
2018-Jun-23 02:59N 29°21' W 094°44'0 0.0
2018-Jun-23 02:29N 29°21' W 094°44'0 0.1
2018-Jun-23 01:59N 29°21' W 094°44'0 0.0
2018-Jun-23 01:23N 29°21' W 094°44'0 0.0
2018-Jun-23 00:59N 29°21' W 094°44'0 0.0
2018-Jun-23 00:29N 29°21' W 094°44'0 0.0
2018-Jun-22 23:59N 29°21' W 094°44'0 0.0
2018-Jun-22 23:29N 29°21' W 094°44'0 0.0
2018-Jun-22 22:59N 29°21' W 094°44'0 0.0
2018-Jun-22 22:29N 29°21' W 094°44'0 0.0
2018-Jun-22 21:59N 29°21' W 094°44'0 0.1
2018-Jun-22 21:29N 29°21' W 094°44'0 0.1
2018-Jun-22 20:59N 29°21' W 094°44'0 0.0
2018-Jun-22 20:29N 29°21' W 094°44'0 0.1
2018-Jun-22 19:59N 29°21' W 094°44'0 0.0
2018-Jun-22 19:29N 29°21' W 094°44'0 0.0
2018-Jun-22 18:59N 29°21' W 094°44'0 0.1
2018-Jun-22 18:26N 29°21' W 094°44'0 0.0
2018-Jun-22 17:59N 29°21' W 094°44'0 0.0
2018-Jun-22 17:29N 29°21' W 094°44'0 0.3
2018-Jun-22 16:56N 29°21' W 094°44'1 3.3
2018-Jun-22 16:30N 29°21' W 094°43'611.4
2018-Jun-22 15:58N 29°18' W 094°36'511.0
2018-Jun-22 15:29N 29°15' W 094°32'5 9.5
2018-Jun-22 14:55N 29°12' W 094°26'4 7.7
2018-Jun-22 14:26N 29°10' W 094°23'5 6.6
2018-Jun-22 13:42N 29°07' W 094°18'411.9
2018-Jun-22 13:20N 29°04' W 094°14'412.4
2018-Jun-22 12:59N 29°02' W 094°10'712.4
2018-Jun-22 12:24N 28°58' W 094°04'  

Dump ship's entire track history